sensor_id;sensor_type;location;lat;lon;timestamp;P1;durP1;ratioP1;P2;durP2;ratioP2
48751;SDS011;34544;48.836;9.174;2023-12-14T00:01:23;3.13;;;2.03;;
48751;SDS011;34544;48.836;9.174;2023-12-14T00:03:49;3.47;;;2.30;;
48751;SDS011;34544;48.836;9.174;2023-12-14T00:06:14;3.17;;;2.25;;
48751;SDS011;34544;48.836;9.174;2023-12-14T00:08:40;4.90;;;2.50;;
48751;SDS011;34544;48.836;9.174;2023-12-14T00:11:06;3.00;;;2.00;;
48751;SDS011;34544;48.836;9.174;2023-12-14T00:13:33;4.75;;;3.10;;
48751;SDS011;34544;48.836;9.174;2023-12-14T00:15:59;4.20;;;3.00;;
48751;SDS011;34544;48.836;9.174;2023-12-14T00:18:25;5.50;;;2.30;;
48751;SDS011;34544;48.836;9.174;2023-12-14T00:20:51;6.60;;;2.70;;
48751;SDS011;34544;48.836;9.174;2023-12-14T00:23:18;4.40;;;2.60;;
48751;SDS011;34544;48.836;9.174;2023-12-14T00:25:43;3.97;;;2.70;;
48751;SDS011;34544;48.836;9.174;2023-12-14T00:28:09;3.15;;;2.10;;
48751;SDS011;34544;48.836;9.174;2023-12-14T00:30:35;6.28;;;3.40;;
48751;SDS011;34544;48.836;9.174;2023-12-14T00:33:01;2.55;;;2.00;;
48751;SDS011;34544;48.836;9.174;2023-12-14T00:35:27;2.90;;;1.85;;
48751;SDS011;34544;48.836;9.174;2023-12-14T00:37:52;4.28;;;1.50;;
48751;SDS011;34544;48.836;9.174;2023-12-14T00:40:18;4.13;;;1.38;;
48751;SDS011;34544;48.836;9.174;2023-12-14T00:42:44;2.42;;;1.23;;
48751;SDS011;34544;48.836;9.174;2023-12-14T00:45:09;2.00;;;1.70;;
48751;SDS011;34544;48.836;9.174;2023-12-14T00:47:35;2.38;;;1.45;;
48751;SDS011;34544;48.836;9.174;2023-12-14T00:50:01;2.00;;;1.20;;
48751;SDS011;34544;48.836;9.174;2023-12-14T00:52:27;2.70;;;1.50;;
48751;SDS011;34544;48.836;9.174;2023-12-14T00:54:53;3.60;;;1.35;;
48751;SDS011;34544;48.836;9.174;2023-12-14T00:57:19;3.13;;;1.40;;
48751;SDS011;34544;48.836;9.174;2023-12-14T00:59:45;1.75;;;1.35;;
48751;SDS011;34544;48.836;9.174;2023-12-14T01:02:11;2.13;;;1.25;;
48751;SDS011;34544;48.836;9.174;2023-12-14T01:04:37;5.78;;;1.35;;
48751;SDS011;34544;48.836;9.174;2023-12-14T01:07:03;1.80;;;1.27;;
48751;SDS011;34544;48.836;9.174;2023-12-14T01:09:29;3.40;;;1.38;;
48751;SDS011;34544;48.836;9.174;2023-12-14T01:11:55;2.58;;;1.45;;
48751;SDS011;34544;48.836;9.174;2023-12-14T01:14:21;2.88;;;1.02;;
48751;SDS011;34544;48.836;9.174;2023-12-14T01:16:46;3.70;;;1.60;;
48751;SDS011;34544;48.836;9.174;2023-12-14T01:19:12;2.30;;;1.23;;
48751;SDS011;34544;48.836;9.174;2023-12-14T01:21:38;1.75;;;1.30;;
48751;SDS011;34544;48.836;9.174;2023-12-14T01:24:04;3.03;;;1.10;;
48751;SDS011;34544;48.836;9.174;2023-12-14T01:26:30;5.63;;;1.45;;
48751;SDS011;34544;48.836;9.174;2023-12-14T01:28:56;6.55;;;1.40;;
48751;SDS011;34544;48.836;9.174;2023-12-14T01:31:24;2.70;;;1.40;;
48751;SDS011;34544;48.836;9.174;2023-12-14T01:33:51;2.05;;;1.45;;
48751;SDS011;34544;48.836;9.174;2023-12-14T01:36:23;4.32;;;2.20;;
48751;SDS011;34544;48.836;9.174;2023-12-14T01:38:50;3.55;;;1.52;;
48751;SDS011;34544;48.836;9.174;2023-12-14T01:41:16;2.35;;;1.38;;
48751;SDS011;34544;48.836;9.174;2023-12-14T01:43:42;1.35;;;1.20;;
48751;SDS011;34544;48.836;9.174;2023-12-14T01:46:08;5.03;;;1.63;;
48751;SDS011;34544;48.836;9.174;2023-12-14T01:48:34;2.00;;;1.20;;
48751;SDS011;34544;48.836;9.174;2023-12-14T01:51:00;5.10;;;1.48;;
48751;SDS011;34544;48.836;9.174;2023-12-14T01:53:26;4.40;;;1.85;;
48751;SDS011;34544;48.836;9.174;2023-12-14T01:55:52;2.55;;;1.25;;
48751;SDS011;34544;48.836;9.174;2023-12-14T01:58:18;2.20;;;1.40;;
48751;SDS011;34544;48.836;9.174;2023-12-14T02:00:46;2.10;;;1.90;;
48751;SDS011;34544;48.836;9.174;2023-12-14T02:03:17;2.20;;;1.30;;
48751;SDS011;34544;48.836;9.174;2023-12-14T02:05:43;4.53;;;1.38;;
48751;SDS011;34544;48.836;9.174;2023-12-14T02:08:09;4.00;;;1.65;;
48751;SDS011;34544;48.836;9.174;2023-12-14T02:10:35;2.17;;;1.50;;
48751;SDS011;34544;48.836;9.174;2023-12-14T02:13:01;2.95;;;1.92;;
48751;SDS011;34544;48.836;9.174;2023-12-14T02:15:27;2.47;;;1.90;;
48751;SDS011;34544;48.836;9.174;2023-12-14T02:17:53;3.10;;;2.08;;
48751;SDS011;34544;48.836;9.174;2023-12-14T02:20:19;3.63;;;2.53;;
48751;SDS011;34544;48.836;9.174;2023-12-14T02:22:48;6.35;;;2.20;;
48751;SDS011;34544;48.836;9.174;2023-12-14T02:25:15;2.75;;;2.45;;
48751;SDS011;34544;48.836;9.174;2023-12-14T02:27:41;4.05;;;2.28;;
48751;SDS011;34544;48.836;9.174;2023-12-14T02:30:07;4.85;;;2.15;;
48751;SDS011;34544;48.836;9.174;2023-12-14T02:32:33;2.22;;;1.77;;
48751;SDS011;34544;48.836;9.174;2023-12-14T02:34:59;2.75;;;2.15;;
48751;SDS011;34544;48.836;9.174;2023-12-14T02:37:25;9.00;;;2.47;;
48751;SDS011;34544;48.836;9.174;2023-12-14T02:39:50;3.95;;;2.10;;
48751;SDS011;34544;48.836;9.174;2023-12-14T02:42:16;6.40;;;2.30;;
48751;SDS011;34544;48.836;9.174;2023-12-14T02:44:42;4.75;;;2.47;;
48751;SDS011;34544;48.836;9.174;2023-12-14T02:47:08;2.67;;;2.08;;
48751;SDS011;34544;48.836;9.174;2023-12-14T02:49:34;5.88;;;2.17;;
48751;SDS011;34544;48.836;9.174;2023-12-14T02:51:59;9.05;;;2.63;;
48751;SDS011;34544;48.836;9.174;2023-12-14T02:54:25;3.85;;;2.40;;
48751;SDS011;34544;48.836;9.174;2023-12-14T02:56:51;3.10;;;2.17;;
48751;SDS011;34544;48.836;9.174;2023-12-14T02:59:16;3.58;;;1.88;;
48751;SDS011;34544;48.836;9.174;2023-12-14T03:01:42;3.65;;;2.08;;
48751;SDS011;34544;48.836;9.174;2023-12-14T03:04:08;5.20;;;2.35;;
48751;SDS011;34544;48.836;9.174;2023-12-14T03:06:33;2.88;;;2.20;;
48751;SDS011;34544;48.836;9.174;2023-12-14T03:08:59;3.47;;;2.50;;
48751;SDS011;34544;48.836;9.174;2023-12-14T03:11:25;6.75;;;2.63;;
48751;SDS011;34544;48.836;9.174;2023-12-14T03:13:51;2.78;;;2.30;;
48751;SDS011;34544;48.836;9.174;2023-12-14T03:16:18;4.07;;;2.38;;
48751;SDS011;34544;48.836;9.174;2023-12-14T03:18:44;3.55;;;1.90;;
48751;SDS011;34544;48.836;9.174;2023-12-14T03:21:10;2.92;;;2.08;;
48751;SDS011;34544;48.836;9.174;2023-12-14T03:23:36;2.38;;;1.85;;
48751;SDS011;34544;48.836;9.174;2023-12-14T03:26:02;2.53;;;1.98;;
48751;SDS011;34544;48.836;9.174;2023-12-14T03:28:28;4.82;;;1.92;;
48751;SDS011;34544;48.836;9.174;2023-12-14T03:30:54;2.15;;;1.70;;
48751;SDS011;34544;48.836;9.174;2023-12-14T03:33:20;1.92;;;1.73;;
48751;SDS011;34544;48.836;9.174;2023-12-14T03:35:47;2.15;;;1.60;;
48751;SDS011;34544;48.836;9.174;2023-12-14T03:38:13;3.03;;;1.70;;
48751;SDS011;34544;48.836;9.174;2023-12-14T03:40:39;4.10;;;1.65;;
48751;SDS011;34544;48.836;9.174;2023-12-14T03:43:05;2.22;;;1.55;;
48751;SDS011;34544;48.836;9.174;2023-12-14T03:45:30;4.05;;;1.80;;
48751;SDS011;34544;48.836;9.174;2023-12-14T03:47:56;3.45;;;1.75;;
48751;SDS011;34544;48.836;9.174;2023-12-14T03:50:22;2.05;;;1.40;;
48751;SDS011;34544;48.836;9.174;2023-12-14T03:52:48;6.38;;;1.58;;
48751;SDS011;34544;48.836;9.174;2023-12-14T03:55:14;2.45;;;1.60;;
48751;SDS011;34544;48.836;9.174;2023-12-14T03:57:41;2.53;;;1.70;;
48751;SDS011;34544;48.836;9.174;2023-12-14T04:00:09;1.90;;;1.20;;
48751;SDS011;34544;48.836;9.174;2023-12-14T04:02:38;2.13;;;1.48;;
48751;SDS011;34544;48.836;9.174;2023-12-14T04:05:05;1.75;;;1.15;;
48751;SDS011;34544;48.836;9.174;2023-12-14T04:07:31;1.85;;;1.63;;
48751;SDS011;34544;48.836;9.174;2023-12-14T04:09:57;2.05;;;1.60;;
48751;SDS011;34544;48.836;9.174;2023-12-14T04:12:23;1.75;;;1.35;;
48751;SDS011;34544;48.836;9.174;2023-12-14T04:14:48;3.75;;;1.70;;
48751;SDS011;34544;48.836;9.174;2023-12-14T04:17:14;1.70;;;1.50;;
48751;SDS011;34544;48.836;9.174;2023-12-14T04:19:41;1.83;;;1.48;;
48751;SDS011;34544;48.836;9.174;2023-12-14T04:22:07;2.90;;;1.92;;
48751;SDS011;34544;48.836;9.174;2023-12-14T04:24:33;1.83;;;1.45;;
48751;SDS011;34544;48.836;9.174;2023-12-14T04:26:59;2.55;;;1.60;;
48751;SDS011;34544;48.836;9.174;2023-12-14T04:29:25;2.35;;;1.55;;
48751;SDS011;34544;48.836;9.174;2023-12-14T04:31:51;1.75;;;1.50;;
48751;SDS011;34544;48.836;9.174;2023-12-14T04:34:18;2.90;;;1.98;;
48751;SDS011;34544;48.836;9.174;2023-12-14T04:36:47;4.20;;;2.00;;
48751;SDS011;34544;48.836;9.174;2023-12-14T04:39:13;3.67;;;1.90;;
48751;SDS011;34544;48.836;9.174;2023-12-14T04:41:39;4.53;;;1.83;;
48751;SDS011;34544;48.836;9.174;2023-12-14T04:44:05;3.95;;;2.17;;
48751;SDS011;34544;48.836;9.174;2023-12-14T04:46:31;3.05;;;1.65;;
48751;SDS011;34544;48.836;9.174;2023-12-14T04:48:56;2.58;;;2.13;;
48751;SDS011;34544;48.836;9.174;2023-12-14T04:51:22;3.15;;;1.85;;
48751;SDS011;34544;48.836;9.174;2023-12-14T04:53:47;2.60;;;1.73;;
48751;SDS011;34544;48.836;9.174;2023-12-14T04:56:13;3.00;;;2.10;;
48751;SDS011;34544;48.836;9.174;2023-12-14T04:58:39;2.60;;;1.83;;
48751;SDS011;34544;48.836;9.174;2023-12-14T05:01:05;2.50;;;2.05;;
48751;SDS011;34544;48.836;9.174;2023-12-14T05:03:32;2.20;;;2.00;;
48751;SDS011;34544;48.836;9.174;2023-12-14T05:05:58;7.50;;;2.45;;
48751;SDS011;34544;48.836;9.174;2023-12-14T05:08:24;2.83;;;2.38;;
48751;SDS011;34544;48.836;9.174;2023-12-14T05:10:50;2.53;;;2.22;;
48751;SDS011;34544;48.836;9.174;2023-12-14T05:13:16;7.70;;;2.33;;
48751;SDS011;34544;48.836;9.174;2023-12-14T05:15:41;3.33;;;1.98;;
48751;SDS011;34544;48.836;9.174;2023-12-14T05:18:07;3.70;;;2.05;;
48751;SDS011;34544;48.836;9.174;2023-12-14T05:20:33;5.30;;;2.40;;
48751;SDS011;34544;48.836;9.174;2023-12-14T05:23:00;6.78;;;2.30;;
48751;SDS011;34544;48.836;9.174;2023-12-14T05:25:26;7.22;;;2.63;;
48751;SDS011;34544;48.836;9.174;2023-12-14T05:27:52;3.13;;;2.67;;
48751;SDS011;34544;48.836;9.174;2023-12-14T05:30:18;5.45;;;3.05;;
48751;SDS011;34544;48.836;9.174;2023-12-14T05:32:44;3.45;;;3.00;;
48751;SDS011;34544;48.836;9.174;2023-12-14T05:35:10;5.18;;;3.03;;
48751;SDS011;34544;48.836;9.174;2023-12-14T05:37:38;5.47;;;2.55;;
48751;SDS011;34544;48.836;9.174;2023-12-14T05:40:04;3.05;;;2.63;;
48751;SDS011;34544;48.836;9.174;2023-12-14T05:42:30;3.30;;;2.67;;
48751;SDS011;34544;48.836;9.174;2023-12-14T05:44:56;6.47;;;3.10;;
48751;SDS011;34544;48.836;9.174;2023-12-14T05:47:22;3.92;;;2.67;;
48751;SDS011;34544;48.836;9.174;2023-12-14T05:49:48;4.55;;;3.67;;
48751;SDS011;34544;48.836;9.174;2023-12-14T05:52:13;5.55;;;3.85;;
48751;SDS011;34544;48.836;9.174;2023-12-14T05:54:39;5.43;;;3.80;;
48751;SDS011;34544;48.836;9.174;2023-12-14T05:57:05;5.55;;;3.47;;
48751;SDS011;34544;48.836;9.174;2023-12-14T05:59:31;6.13;;;3.85;;
48751;SDS011;34544;48.836;9.174;2023-12-14T06:01:57;5.80;;;4.07;;
48751;SDS011;34544;48.836;9.174;2023-12-14T06:04:24;6.78;;;4.32;;
48751;SDS011;34544;48.836;9.174;2023-12-14T06:06:49;5.25;;;3.67;;
48751;SDS011;34544;48.836;9.174;2023-12-14T06:09:15;3.33;;;3.00;;
48751;SDS011;34544;48.836;9.174;2023-12-14T06:11:43;5.85;;;3.65;;
48751;SDS011;34544;48.836;9.174;2023-12-14T06:14:09;3.70;;;3.20;;
48751;SDS011;34544;48.836;9.174;2023-12-14T06:16:34;9.27;;;3.35;;
48751;SDS011;34544;48.836;9.174;2023-12-14T06:19:00;3.92;;;3.05;;
48751;SDS011;34544;48.836;9.174;2023-12-14T06:21:25;3.70;;;3.28;;
48751;SDS011;34544;48.836;9.174;2023-12-14T06:23:55;3.53;;;2.97;;
48751;SDS011;34544;48.836;9.174;2023-12-14T06:26:22;4.15;;;3.42;;
48751;SDS011;34544;48.836;9.174;2023-12-14T06:28:47;3.58;;;3.25;;
48751;SDS011;34544;48.836;9.174;2023-12-14T06:31:13;8.05;;;4.38;;
48751;SDS011;34544;48.836;9.174;2023-12-14T06:33:39;6.25;;;4.55;;
48751;SDS011;34544;48.836;9.174;2023-12-14T06:36:05;10.05;;;4.55;;
48751;SDS011;34544;48.836;9.174;2023-12-14T06:38:33;6.50;;;3.63;;
48751;SDS011;34544;48.836;9.174;2023-12-14T06:40:58;7.50;;;4.13;;
48751;SDS011;34544;48.836;9.174;2023-12-14T06:43:27;3.97;;;3.22;;
48751;SDS011;34544;48.836;9.174;2023-12-14T06:45:53;6.47;;;3.50;;
48751;SDS011;34544;48.836;9.174;2023-12-14T06:48:19;4.10;;;3.38;;
48751;SDS011;34544;48.836;9.174;2023-12-14T06:50:45;5.93;;;4.15;;
48751;SDS011;34544;48.836;9.174;2023-12-14T06:53:11;3.97;;;3.40;;
48751;SDS011;34544;48.836;9.174;2023-12-14T06:55:37;8.68;;;4.45;;
48751;SDS011;34544;48.836;9.174;2023-12-14T06:58:02;5.80;;;4.40;;
48751;SDS011;34544;48.836;9.174;2023-12-14T07:00:29;6.30;;;4.40;;
48751;SDS011;34544;48.836;9.174;2023-12-14T07:02:55;8.25;;;4.78;;
48751;SDS011;34544;48.836;9.174;2023-12-14T07:05:20;6.32;;;4.50;;
48751;SDS011;34544;48.836;9.174;2023-12-14T07:07:46;9.23;;;5.97;;
48751;SDS011;34544;48.836;9.174;2023-12-14T07:10:12;5.97;;;5.22;;
48751;SDS011;34544;48.836;9.174;2023-12-14T07:12:37;8.77;;;5.70;;
48751;SDS011;34544;48.836;9.174;2023-12-14T07:15:03;7.78;;;6.10;;
48751;SDS011;34544;48.836;9.174;2023-12-14T07:17:30;8.13;;;6.70;;
48751;SDS011;34544;48.836;9.174;2023-12-14T07:19:56;7.78;;;6.03;;
48751;SDS011;34544;48.836;9.174;2023-12-14T07:22:22;7.30;;;5.80;;
48751;SDS011;34544;48.836;9.174;2023-12-14T07:24:47;6.68;;;5.47;;
48751;SDS011;34544;48.836;9.174;2023-12-14T07:27:13;6.38;;;5.70;;
48751;SDS011;34544;48.836;9.174;2023-12-14T07:29:39;7.43;;;5.78;;
48751;SDS011;34544;48.836;9.174;2023-12-14T07:32:04;9.57;;;5.60;;
48751;SDS011;34544;48.836;9.174;2023-12-14T07:34:30;7.85;;;6.43;;
48751;SDS011;34544;48.836;9.174;2023-12-14T07:36:56;7.75;;;5.75;;
48751;SDS011;34544;48.836;9.174;2023-12-14T07:39:22;9.10;;;5.35;;
48751;SDS011;34544;48.836;9.174;2023-12-14T07:41:48;5.80;;;4.90;;
48751;SDS011;34544;48.836;9.174;2023-12-14T07:44:13;9.77;;;5.47;;
48751;SDS011;34544;48.836;9.174;2023-12-14T07:46:39;9.00;;;5.47;;
48751;SDS011;34544;48.836;9.174;2023-12-14T07:49:07;6.53;;;4.50;;
48751;SDS011;34544;48.836;9.174;2023-12-14T07:51:33;6.45;;;5.65;;
48751;SDS011;34544;48.836;9.174;2023-12-14T07:53:59;8.00;;;5.90;;
48751;SDS011;34544;48.836;9.174;2023-12-14T07:56:24;10.55;;;6.13;;
48751;SDS011;34544;48.836;9.174;2023-12-14T07:58:53;9.38;;;6.00;;
48751;SDS011;34544;48.836;9.174;2023-12-14T08:01:18;8.52;;;6.07;;
48751;SDS011;34544;48.836;9.174;2023-12-14T08:03:45;8.25;;;6.25;;
48751;SDS011;34544;48.836;9.174;2023-12-14T08:06:11;8.05;;;6.65;;
48751;SDS011;34544;48.836;9.174;2023-12-14T08:08:37;13.77;;;5.82;;
48751;SDS011;34544;48.836;9.174;2023-12-14T08:11:03;8.50;;;5.75;;
48751;SDS011;34544;48.836;9.174;2023-12-14T08:13:30;5.82;;;5.10;;
48751;SDS011;34544;48.836;9.174;2023-12-14T08:15:56;6.75;;;5.22;;
48751;SDS011;34544;48.836;9.174;2023-12-14T08:18:21;6.63;;;5.10;;
48751;SDS011;34544;48.836;9.174;2023-12-14T08:20:47;8.40;;;5.50;;
48751;SDS011;34544;48.836;9.174;2023-12-14T08:23:13;7.28;;;6.03;;
48751;SDS011;34544;48.836;9.174;2023-12-14T08:25:39;8.70;;;5.53;;
48751;SDS011;34544;48.836;9.174;2023-12-14T08:28:06;9.25;;;6.90;;
48751;SDS011;34544;48.836;9.174;2023-12-14T08:30:33;8.85;;;6.68;;
48751;SDS011;34544;48.836;9.174;2023-12-14T08:32:59;8.52;;;5.97;;
48751;SDS011;34544;48.836;9.174;2023-12-14T08:35:26;10.18;;;6.50;;
48751;SDS011;34544;48.836;9.174;2023-12-14T08:37:52;8.40;;;6.60;;
48751;SDS011;34544;48.836;9.174;2023-12-14T08:40:19;9.93;;;6.88;;
48751;SDS011;34544;48.836;9.174;2023-12-14T08:42:46;9.18;;;8.05;;
48751;SDS011;34544;48.836;9.174;2023-12-14T08:45:13;12.20;;;7.88;;
48751;SDS011;34544;48.836;9.174;2023-12-14T08:47:40;9.70;;;7.30;;
48751;SDS011;34544;48.836;9.174;2023-12-14T08:50:06;14.00;;;8.55;;
48751;SDS011;34544;48.836;9.174;2023-12-14T08:52:34;14.57;;;8.30;;
48751;SDS011;34544;48.836;9.174;2023-12-14T08:55:00;10.63;;;7.95;;
48751;SDS011;34544;48.836;9.174;2023-12-14T08:57:27;16.23;;;8.23;;
48751;SDS011;34544;48.836;9.174;2023-12-14T08:59:54;12.65;;;9.15;;
48751;SDS011;34544;48.836;9.174;2023-12-14T09:02:21;12.15;;;8.10;;
48751;SDS011;34544;48.836;9.174;2023-12-14T09:04:47;9.52;;;8.52;;
48751;SDS011;34544;48.836;9.174;2023-12-14T09:07:14;11.48;;;8.40;;
48751;SDS011;34544;48.836;9.174;2023-12-14T09:09:41;10.02;;;7.45;;
48751;SDS011;34544;48.836;9.174;2023-12-14T09:12:07;14.18;;;8.73;;
48751;SDS011;34544;48.836;9.174;2023-12-14T09:14:34;11.50;;;8.07;;
48751;SDS011;34544;48.836;9.174;2023-12-14T09:17:01;10.65;;;8.02;;
48751;SDS011;34544;48.836;9.174;2023-12-14T09:19:29;14.02;;;10.32;;
48751;SDS011;34544;48.836;9.174;2023-12-14T09:21:57;15.88;;;9.48;;
48751;SDS011;34544;48.836;9.174;2023-12-14T09:24:24;10.18;;;8.57;;
48751;SDS011;34544;48.836;9.174;2023-12-14T09:26:51;11.57;;;9.20;;
48751;SDS011;34544;48.836;9.174;2023-12-14T09:29:17;13.80;;;9.02;;
48751;SDS011;34544;48.836;9.174;2023-12-14T09:31:44;12.73;;;8.70;;
48751;SDS011;34544;48.836;9.174;2023-12-14T09:34:12;14.93;;;10.02;;
48751;SDS011;34544;48.836;9.174;2023-12-14T09:36:39;11.98;;;8.35;;
48751;SDS011;34544;48.836;9.174;2023-12-14T09:39:06;11.88;;;9.23;;
48751;SDS011;34544;48.836;9.174;2023-12-14T09:41:38;12.30;;;8.63;;
48751;SDS011;34544;48.836;9.174;2023-12-14T09:44:05;12.73;;;9.88;;
48751;SDS011;34544;48.836;9.174;2023-12-14T09:46:36;10.57;;;8.85;;
48751;SDS011;34544;48.836;9.174;2023-12-14T09:49:03;14.25;;;9.13;;
48751;SDS011;34544;48.836;9.174;2023-12-14T09:51:30;12.85;;;9.70;;
48751;SDS011;34544;48.836;9.174;2023-12-14T09:53:57;10.77;;;9.68;;
48751;SDS011;34544;48.836;9.174;2023-12-14T09:56:24;10.98;;;9.02;;
48751;SDS011;34544;48.836;9.174;2023-12-14T09:58:51;12.25;;;9.18;;
48751;SDS011;34544;48.836;9.174;2023-12-14T10:01:22;12.00;;;8.85;;
48751;SDS011;34544;48.836;9.174;2023-12-14T10:04:09;10.57;;;8.32;;
48751;SDS011;34544;48.836;9.174;2023-12-14T10:06:41;12.30;;;7.75;;
48751;SDS011;34544;48.836;9.174;2023-12-14T10:09:08;10.60;;;7.78;;
48751;SDS011;34544;48.836;9.174;2023-12-14T10:11:38;13.45;;;8.30;;
48751;SDS011;34544;48.836;9.174;2023-12-14T10:14:18;10.00;;;7.43;;
48751;SDS011;34544;48.836;9.174;2023-12-14T10:16:48;11.57;;;7.60;;
48751;SDS011;34544;48.836;9.174;2023-12-14T10:19:16;9.30;;;7.53;;
48751;SDS011;34544;48.836;9.174;2023-12-14T10:21:46;13.43;;;6.50;;
48751;SDS011;34544;48.836;9.174;2023-12-14T10:24:14;13.32;;;7.68;;
48751;SDS011;34544;48.836;9.174;2023-12-14T10:26:41;12.48;;;8.27;;
48751;SDS011;34544;48.836;9.174;2023-12-14T10:29:10;18.55;;;7.88;;
48751;SDS011;34544;48.836;9.174;2023-12-14T10:31:40;15.68;;;7.20;;
48751;SDS011;34544;48.836;9.174;2023-12-14T10:34:07;7.43;;;5.93;;
48751;SDS011;34544;48.836;9.174;2023-12-14T10:36:33;8.15;;;6.85;;
48751;SDS011;34544;48.836;9.174;2023-12-14T10:39:01;9.55;;;7.05;;
48751;SDS011;34544;48.836;9.174;2023-12-14T10:41:28;10.90;;;6.18;;
48751;SDS011;34544;48.836;9.174;2023-12-14T10:43:58;9.57;;;6.88;;
48751;SDS011;34544;48.836;9.174;2023-12-14T10:46:27;9.02;;;6.25;;
48751;SDS011;34544;48.836;9.174;2023-12-14T10:48:53;9.00;;;6.82;;
48751;SDS011;34544;48.836;9.174;2023-12-14T10:51:20;13.07;;;7.35;;
48751;SDS011;34544;48.836;9.174;2023-12-14T10:53:49;9.00;;;6.22;;
48751;SDS011;34544;48.836;9.174;2023-12-14T10:56:17;10.43;;;7.45;;
48751;SDS011;34544;48.836;9.174;2023-12-14T10:58:45;9.63;;;6.05;;
48751;SDS011;34544;48.836;9.174;2023-12-14T11:01:15;8.57;;;6.22;;
48751;SDS011;34544;48.836;9.174;2023-12-14T11:03:43;10.17;;;6.63;;
48751;SDS011;34544;48.836;9.174;2023-12-14T11:14:22;8.10;;;5.22;;
48751;SDS011;34544;48.836;9.174;2023-12-14T11:16:48;7.88;;;5.40;;
48751;SDS011;34544;48.836;9.174;2023-12-14T11:22:29;7.70;;;4.93;;
48751;SDS011;34544;48.836;9.174;2023-12-14T11:24:40;6.07;;;4.30;;
48751;SDS011;34544;48.836;9.174;2023-12-14T11:27:08;5.93;;;4.20;;
48751;SDS011;34544;48.836;9.174;2023-12-14T11:29:38;6.40;;;4.22;;
48751;SDS011;34544;48.836;9.174;2023-12-14T11:32:07;8.48;;;5.15;;
48751;SDS011;34544;48.836;9.174;2023-12-14T11:34:33;8.20;;;4.28;;
48751;SDS011;34544;48.836;9.174;2023-12-14T11:36:59;12.00;;;5.57;;
48751;SDS011;34544;48.836;9.174;2023-12-14T11:39:24;9.55;;;4.85;;
48751;SDS011;34544;48.836;9.174;2023-12-14T11:42:01;12.52;;;6.53;;
48751;SDS011;34544;48.836;9.174;2023-12-14T11:44:28;9.50;;;5.70;;
48751;SDS011;34544;48.836;9.174;2023-12-14T11:46:55;8.10;;;5.47;;
48751;SDS011;34544;48.836;9.174;2023-12-14T11:49:24;9.02;;;5.68;;
48751;SDS011;34544;48.836;9.174;2023-12-14T11:51:55;12.20;;;6.15;;
48751;SDS011;34544;48.836;9.174;2023-12-14T11:54:21;10.55;;;5.45;;
48751;SDS011;34544;48.836;9.174;2023-12-14T11:56:47;7.28;;;4.75;;
48751;SDS011;34544;48.836;9.174;2023-12-14T11:59:17;3.40;;;3.10;;
48751;SDS011;34544;48.836;9.174;2023-12-14T12:01:53;3.92;;;3.50;;
48751;SDS011;34544;48.836;9.174;2023-12-14T12:04:23;5.13;;;2.95;;
48751;SDS011;34544;48.836;9.174;2023-12-14T12:06:58;6.47;;;3.10;;
48751;SDS011;34544;48.836;9.174;2023-12-14T12:12:09;3.15;;;2.35;;
48751;SDS011;34544;48.836;9.174;2023-12-14T12:14:36;4.78;;;2.88;;
48751;SDS011;34544;48.836;9.174;2023-12-14T12:17:03;4.07;;;2.90;;
48751;SDS011;34544;48.836;9.174;2023-12-14T12:19:31;4.75;;;2.60;;
48751;SDS011;34544;48.836;9.174;2023-12-14T12:22:00;3.80;;;2.90;;
48751;SDS011;34544;48.836;9.174;2023-12-14T12:24:27;4.32;;;2.90;;
48751;SDS011;34544;48.836;9.174;2023-12-14T12:26:53;2.83;;;2.53;;
48751;SDS011;34544;48.836;9.174;2023-12-14T12:29:19;4.32;;;2.88;;
48751;SDS011;34544;48.836;9.174;2023-12-14T12:31:44;3.28;;;2.80;;
48751;SDS011;34544;48.836;9.174;2023-12-14T12:34:10;7.07;;;3.80;;
48751;SDS011;34544;48.836;9.174;2023-12-14T12:36:37;2.80;;;2.55;;
48751;SDS011;34544;48.836;9.174;2023-12-14T12:39:03;6.97;;;3.00;;
48751;SDS011;34544;48.836;9.174;2023-12-14T12:41:31;6.00;;;3.80;;
48751;SDS011;34544;48.836;9.174;2023-12-14T12:43:58;4.93;;;4.10;;
48751;SDS011;34544;48.836;9.174;2023-12-14T12:46:24;5.10;;;3.30;;
48751;SDS011;34544;48.836;9.174;2023-12-14T12:48:50;5.78;;;3.90;;
48751;SDS011;34544;48.836;9.174;2023-12-14T12:51:16;5.85;;;3.70;;
48751;SDS011;34544;48.836;9.174;2023-12-14T12:53:42;5.00;;;3.78;;
48751;SDS011;34544;48.836;9.174;2023-12-14T12:56:08;7.25;;;4.13;;
48751;SDS011;34544;48.836;9.174;2023-12-14T12:58:34;5.78;;;3.85;;
48751;SDS011;34544;48.836;9.174;2023-12-14T13:00:59;8.02;;;4.43;;
48751;SDS011;34544;48.836;9.174;2023-12-14T13:03:25;6.43;;;4.25;;
48751;SDS011;34544;48.836;9.174;2023-12-14T13:05:51;7.07;;;3.92;;
48751;SDS011;34544;48.836;9.174;2023-12-14T13:08:17;7.18;;;4.40;;
48751;SDS011;34544;48.836;9.174;2023-12-14T13:10:43;3.95;;;2.33;;
48751;SDS011;34544;48.836;9.174;2023-12-14T13:13:09;3.15;;;2.45;;
48751;SDS011;34544;48.836;9.174;2023-12-14T13:15:37;6.40;;;3.70;;
48751;SDS011;34544;48.836;9.174;2023-12-14T13:18:04;4.63;;;2.80;;
48751;SDS011;34544;48.836;9.174;2023-12-14T13:20:30;7.68;;;3.13;;
48751;SDS011;34544;48.836;9.174;2023-12-14T13:22:55;7.63;;;3.28;;
48751;SDS011;34544;48.836;9.174;2023-12-14T13:25:21;4.57;;;2.72;;
48751;SDS011;34544;48.836;9.174;2023-12-14T13:27:51;6.80;;;3.53;;
48751;SDS011;34544;48.836;9.174;2023-12-14T13:30:17;8.30;;;3.17;;
48751;SDS011;34544;48.836;9.174;2023-12-14T13:32:43;4.78;;;3.13;;
48751;SDS011;34544;48.836;9.174;2023-12-14T13:35:08;4.93;;;2.75;;
48751;SDS011;34544;48.836;9.174;2023-12-14T13:37:34;5.47;;;3.22;;
48751;SDS011;34544;48.836;9.174;2023-12-14T13:40:00;4.60;;;2.28;;
48751;SDS011;34544;48.836;9.174;2023-12-14T13:42:26;3.78;;;2.13;;
48751;SDS011;34544;48.836;9.174;2023-12-14T13:44:51;4.65;;;2.90;;
48751;SDS011;34544;48.836;9.174;2023-12-14T13:47:17;3.42;;;2.50;;
48751;SDS011;34544;48.836;9.174;2023-12-14T13:49:43;3.65;;;3.00;;
48751;SDS011;34544;48.836;9.174;2023-12-14T13:52:09;5.25;;;2.95;;
48751;SDS011;34544;48.836;9.174;2023-12-14T13:54:35;4.32;;;2.88;;
48751;SDS011;34544;48.836;9.174;2023-12-14T13:57:02;6.88;;;3.25;;
48751;SDS011;34544;48.836;9.174;2023-12-14T13:59:28;7.72;;;3.63;;
48751;SDS011;34544;48.836;9.174;2023-12-14T14:01:53;7.38;;;3.95;;
48751;SDS011;34544;48.836;9.174;2023-12-14T14:04:19;6.18;;;4.32;;
48751;SDS011;34544;48.836;9.174;2023-12-14T14:06:45;6.75;;;3.95;;
48751;SDS011;34544;48.836;9.174;2023-12-14T14:09:11;7.90;;;4.78;;
48751;SDS011;34544;48.836;9.174;2023-12-14T14:11:37;11.35;;;5.55;;
48751;SDS011;34544;48.836;9.174;2023-12-14T14:14:06;8.38;;;6.45;;
48751;SDS011;34544;48.836;9.174;2023-12-14T14:16:32;7.43;;;6.05;;
48751;SDS011;34544;48.836;9.174;2023-12-14T14:18:57;7.47;;;5.43;;
48751;SDS011;34544;48.836;9.174;2023-12-14T14:21:24;10.65;;;6.43;;
48751;SDS011;34544;48.836;9.174;2023-12-14T14:23:50;8.55;;;6.35;;
48751;SDS011;34544;48.836;9.174;2023-12-14T14:26:15;9.73;;;7.53;;
48751;SDS011;34544;48.836;9.174;2023-12-14T14:28:41;10.30;;;7.13;;
48751;SDS011;34544;48.836;9.174;2023-12-14T14:31:06;9.98;;;7.32;;
48751;SDS011;34544;48.836;9.174;2023-12-14T14:33:32;10.60;;;7.32;;
48751;SDS011;34544;48.836;9.174;2023-12-14T14:35:58;10.88;;;7.78;;
48751;SDS011;34544;48.836;9.174;2023-12-14T14:38:24;13.35;;;8.23;;
48751;SDS011;34544;48.836;9.174;2023-12-14T14:40:49;14.60;;;9.05;;
48751;SDS011;34544;48.836;9.174;2023-12-14T14:43:15;11.93;;;8.10;;
48751;SDS011;34544;48.836;9.174;2023-12-14T14:45:41;10.85;;;8.40;;
48751;SDS011;34544;48.836;9.174;2023-12-14T14:48:07;9.77;;;7.55;;
48751;SDS011;34544;48.836;9.174;2023-12-14T14:50:34;13.05;;;8.50;;
48751;SDS011;34544;48.836;9.174;2023-12-14T14:52:59;14.00;;;9.10;;
48751;SDS011;34544;48.836;9.174;2023-12-14T14:55:25;12.20;;;8.80;;